Time;durP1;ratioP1;P1;durP2;ratioP2;P2;SDS_P1;SDS_P2;PMS_P1;PMS_P2;Temp;Humidity;BMP_temperature;BMP_pressure;BME280_temperature;BME280_humidity;BME280_pressure;Samples;Min_cycle;Max_cycle;Signal;HPM_P1;HPM_P2
2021/10/01 00:02:09;;;;;;;;;;;;;;;27.72;35.06;101758.84;5032897;28;862;-47
2021/10/01 00:04:36;;;;;;;;;;;;;;;27.85;34.87;101753.00;5020168;28;1120;-49
2021/10/01 00:07:01;;;;;;;;;;;;;;;27.92;34.51;101752.31;5019440;28;1223;-48
2021/10/01 00:09:26;;;;;;;;;;;;;;;27.96;34.73;101754.53;5006772;28;1203;-44
2021/10/01 00:11:52;;;;;;;;;;;;;;;27.95;34.65;101755.56;5019100;28;1207;-47
2021/10/01 00:14:20;;;;;;;;;;;;;;;27.91;34.38;101746.06;5022130;28;1255;-49
2021/10/01 00:16:46;;;;;;;;;;;;;;;27.93;34.47;101752.16;5019239;28;1906;-49
2021/10/01 00:19:12;;;;;;;;;;;;;;;27.92;34.15;101747.78;5019120;28;1172;-46
2021/10/01 00:21:37;;;;;;;;;;;;;;;27.93;34.64;101754.88;5019088;28;1136;-49
2021/10/01 00:24:02;;;;;;;;;;;;;;;28.06;34.19;101748.16;5019169;28;1139;-48
2021/10/01 00:26:28;;;;;;;;;;;;;;;27.96;34.39;101757.22;5019654;28;1246;-48
2021/10/01 00:28:53;;;;;;;;;;;;;;;27.93;34.45;101760.28;5019021;28;1180;-48
2021/10/01 00:31:18;;;;;;;;;;;;;;;27.67;34.97;101754.91;5018580;28;1167;-46
2021/10/01 00:33:43;;;;;;;;;;;;;;;27.74;34.56;101766.81;5018882;28;1207;-47
2021/10/01 00:36:09;;;;;;;;;;;;;;;27.66;34.78;101770.25;5016469;28;1906;-47
2021/10/01 00:38:34;;;;;;;;;;;;;;;27.92;34.25;101774.81;5018794;28;1176;-45
2021/10/01 00:40:59;;;;;;;;;;;;;;;27.96;33.99;101778.88;5018207;28;915;-47
2021/10/01 00:43:24;;;;;;;;;;;;;;;27.98;34.01;101766.03;5018608;28;1145;-47
2021/10/01 00:45:50;;;;;;;;;;;;;;;27.98;34.02;101776.84;5018922;28;1200;-48
2021/10/01 00:48:15;;;;;;;;;;;;;;;27.98;34.07;101773.28;5019041;28;1164;-45
2021/10/01 00:50:40;;;;;;;;;;;;;;;27.95;34.18;101773.63;5017565;28;1240;-46
2021/10/01 00:53:06;;;;;;;;;;;;;;;27.93;34.18;101773.78;5026897;28;991;-46
2021/10/01 00:55:31;;;;;;;;;;;;;;;27.92;34.04;101772.09;5017955;28;1899;-46
2021/10/01 00:57:56;;;;;;;;;;;;;;;27.93;34.16;101776.50;5018953;28;1168;-47
2021/10/01 01:00:26;;;;;;;;;;;;;;;27.83;34.16;101770.38;5017858;28;1207;-48
2021/10/01 01:02:52;;;;;;;;;;;;;;;27.90;33.54;101771.41;5018342;28;1140;-46
2021/10/01 01:05:17;;;;;;;;;;;;;;;27.90;33.81;101767.84;5005203;28;1193;-48
2021/10/01 01:07:50;;;;;;;;;;;;;;;27.93;33.79;101765.69;5019060;28;1204;-46
2021/10/01 01:10:33;;;;;;;;;;;;;;;27.90;33.97;101762.44;5033538;28;1129;-46
2021/10/01 01:12:59;;;;;;;;;;;;;;;27.87;34.05;101764.50;5018065;28;1156;-47
2021/10/01 01:15:28;;;;;;;;;;;;;;;27.90;34.14;101768.72;5017876;28;1971;-48
2021/10/01 01:17:54;;;;;;;;;;;;;;;27.77;34.12;101771.88;4999156;28;1176;-47
2021/10/01 01:20:38;;;;;;;;;;;;;;;27.72;34.52;101772.38;5018376;28;1101;-47
2021/10/01 01:23:09;;;;;;;;;;;;;;;27.89;34.09;101769.72;5017531;28;1511;-47
2021/10/01 01:25:54;;;;;;;;;;;;;;;27.87;33.85;101766.34;5018276;28;1129;-46
2021/10/01 01:28:19;;;;;;;;;;;;;;;27.93;33.89;101764.81;5017810;28;1235;-46
2021/10/01 01:30:45;;;;;;;;;;;;;;;27.95;34.01;101760.97;5017558;28;1192;-46
2021/10/01 01:33:12;;;;;;;;;;;;;;;27.95;34.22;101769.06;5019768;28;1179;-46
2021/10/01 01:35:37;;;;;;;;;;;;;;;27.92;34.17;101765.84;5004401;28;1977;-47
2021/10/01 01:38:13;;;;;;;;;;;;;;;27.99;33.97;101766.88;5020062;28;1151;-46
2021/10/01 01:40:39;;;;;;;;;;;;;;;28.03;33.86;101762.00;5003867;28;1149;-48
2021/10/01 01:43:05;;;;;;;;;;;;;;;28.05;33.91;101758.09;5016885;28;1136;-48
2021/10/01 01:45:31;;;;;;;;;;;;;;;28.04;33.50;101759.13;5019828;28;1140;-47
2021/10/01 01:47:56;;;;;;;;;;;;;;;28.05;33.72;101751.84;5004525;28;1117;-47
2021/10/01 01:50:21;;;;;;;;;;;;;;;28.11;33.39;101754.75;5021384;28;1282;-48
2021/10/01 01:52:47;;;;;;;;;;;;;;;28.11;33.55;101754.75;5001876;28;1009;-47
2021/10/01 01:55:13;;;;;;;;;;;;;;;28.00;33.71;101760.47;5022878;28;1148;-46
2021/10/01 01:57:38;;;;;;;;;;;;;;;28.05;33.78;101754.56;5016448;28;1964;-47
2021/10/01 02:00:04;;;;;;;;;;;;;;;28.11;33.73;101760.16;5017118;28;1137;-47
2021/10/01 02:02:29;;;;;;;;;;;;;;;28.11;33.40;101760.16;5016922;28;1109;-45
2021/10/01 02:04:54;;;;;;;;;;;;;;;28.13;33.26;101761.84;5032480;28;1207;-47
2021/10/01 02:07:20;;;;;;;;;;;;;;;28.02;33.84;101763.84;5021699;28;1128;-47
2021/10/01 02:09:45;;;;;;;;;;;;;;;28.03;33.82;101770.94;5015336;28;1184;-46
2021/10/01 02:12:11;;;;;;;;;;;;;;;28.06;33.53;101770.63;4999598;28;1122;-46
2021/10/01 02:14:38;;;;;;;;;;;;;;;28.14;33.35;101769.81;5013659;28;1154;-47
2021/10/01 02:17:03;;;;;;;;;;;;;;;28.02;33.50;101780.09;4999389;28;1965;-46
2021/10/01 02:19:30;;;;;;;;;;;;;;;27.99;33.43;101781.25;4999151;28;1260;-48
2021/10/01 02:21:55;;;;;;;;;;;;;;;28.18;33.63;101771.16;5017216;28;902;-47
2021/10/01 02:24:23;;;;;;;;;;;;;;;28.18;33.50;101773.88;5015400;28;1120;-48
2021/10/01 02:26:54;;;;;;;;;;;;;;;28.11;33.65;101776.38;4999550;28;1030;-47
2021/10/01 02:29:52;;;;;;;;;;;;;;;28.14;33.19;101771.66;4999300;28;1150;-46
2021/10/01 02:32:20;;;;;;;;;;;;;;;28.16;33.31;101773.16;4974260;28;1220;-48
2021/10/01 02:34:46;;;;;;;;;;;;;;;28.03;33.55;101770.94;5016784;28;1266;-48
2021/10/01 02:37:11;;;;;;;;;;;;;;;28.01;33.32;101767.56;5016700;28;1914;-49
2021/10/01 02:39:37;;;;;;;;;;;;;;;28.02;33.43;101777.38;5016666;28;1121;-50
2021/10/01 02:42:03;;;;;;;;;;;;;;;27.94;33.52;101775.50;5020854;28;1109;-51
2021/10/01 02:44:28;;;;;;;;;;;;;;;27.97;33.67;101779.72;5016588;28;1136;-50
2021/10/01 02:46:54;;;;;;;;;;;;;;;28.04;33.13;101783.47;5022561;28;1121;-48
2021/10/01 02:49:19;;;;;;;;;;;;;;;28.01;33.36;101781.06;5036410;28;1168;-50
2021/10/01 02:51:48;;;;;;;;;;;;;;;28.04;33.13;101786.19;5023098;28;1199;-49
2021/10/01 02:54:14;;;;;;;;;;;;;;;27.95;33.41;101793.41;5015199;28;1568;-50
2021/10/01 02:56:40;;;;;;;;;;;;;;;27.98;33.35;101797.63;5005025;28;1898;-49
2021/10/01 02:59:05;;;;;;;;;;;;;;;27.92;33.39;101798.28;5012281;28;1208;-50
2021/10/01 03:01:31;;;;;;;;;;;;;;;27.82;33.52;101804.69;5015149;28;1195;-47
2021/10/01 03:04:07;;;;;;;;;;;;;;;27.91;33.42;101804.72;5028528;28;1144;-47
2021/10/01 03:06:32;;;;;;;;;;;;;;;27.89;33.49;101801.31;5003495;28;1134;-44
2021/10/01 03:08:58;;;;;;;;;;;;;;;27.88;33.58;101800.47;5015914;28;1148;-45
2021/10/01 03:11:23;;;;;;;;;;;;;;;27.94;33.53;101807.09;4995374;28;1180;-45
2021/10/01 03:13:49;;;;;;;;;;;;;;;28.02;33.07;101806.28;5020714;28;950;-48
2021/10/01 03:16:14;;;;;;;;;;;;;;;27.97;33.40;101804.91;5016362;28;1910;-44
2021/10/01 03:18:39;;;;;;;;;;;;;;;27.89;33.50;101802.19;5006287;28;1090;-49
2021/10/01 03:21:05;;;;;;;;;;;;;;;27.65;33.92;101803.72;5009762;28;1228;-49
2021/10/01 03:23:30;;;;;;;;;;;;;;;27.60;34.28;101811.47;5019940;28;1074;-46
2021/10/01 03:25:56;;;;;;;;;;;;;;;27.63;33.91;101814.69;5021983;28;853;-47
2021/10/01 03:28:21;;;;;;;;;;;;;;;27.64;33.62;101807.44;5015630;28;1172;-48
2021/10/01 03:30:46;;;;;;;;;;;;;;;27.54;34.32;101814.81;5016041;28;1113;-49
2021/10/01 03:33:12;;;;;;;;;;;;;;;27.26;34.67;101810.41;5015903;28;1141;-45
2021/10/01 03:35:40;;;;;;;;;;;;;;;27.34;34.65;101804.22;5005716;28;1914;-47
2021/10/01 03:38:05;;;;;;;;;;;;;;;27.54;34.02;101804.00;5011482;28;1036;-49
2021/10/01 03:40:31;;;;;;;;;;;;;;;27.58;34.13;101821.56;5015841;28;1259;-49
2021/10/01 03:42:56;;;;;;;;;;;;;;;27.43;34.35;101813.22;5016067;28;1164;-48
2021/10/01 03:45:21;;;;;;;;;;;;;;;27.34;34.28;101817.72;5015384;28;1133;-50
2021/10/01 03:47:46;;;;;;;;;;;;;;;27.32;34.60;101808.94;5015194;28;990;-47
2021/10/01 03:50:12;;;;;;;;;;;;;;;27.31;33.93;101810.78;5015193;28;1204;-48
2021/10/01 03:52:37;;;;;;;;;;;;;;;25.29;27.81;101808.66;5015083;28;1231;-47
2021/10/01 03:55:04;;;;;;;;;;;;;;;23.78;28.13;101811.38;5015400;28;1180;-48
2021/10/01 03:57:30;;;;;;;;;;;;;;;22.83;28.61;101804.09;5015755;28;1949;-46
2021/10/01 03:59:55;;;;;;;;;;;;;;;24.44;28.69;101812.75;5015530;28;1101;-50
2021/10/01 04:02:21;;;;;;;;;;;;;;;25.46;28.01;101813.47;5015440;28;1125;-46
2021/10/01 04:04:46;;;;;;;;;;;;;;;25.95;28.06;101820.53;5015447;28;947;-48
2021/10/01 04:07:11;;;;;;;;;;;;;;;26.24;27.53;101820.38;5015228;28;1125;-51
2021/10/01 04:09:36;;;;;;;;;;;;;;;26.50;27.67;101821.53;5015376;28;1195;-50
2021/10/01 04:12:02;;;;;;;;;;;;;;;26.44;28.70;101822.16;5015245;28;1133;-50
2021/10/01 04:14:27;;;;;;;;;;;;;;;26.58;28.60;101823.47;5015399;28;1149;-50
2021/10/01 04:16:53;;;;;;;;;;;;;;;26.60;29.07;101825.03;5014702;28;1898;-48
2021/10/01 04:19:21;;;;;;;;;;;;;;;26.61;29.05;101823.19;5015184;28;1125;-52
2021/10/01 04:21:46;;;;;;;;;;;;;;;26.69;29.31;101828.66;5014865;28;1223;-52
2021/10/01 04:24:11;;;;;;;;;;;;;;;26.87;29.75;101830.50;5015312;28;1184;-51
2021/10/01 04:26:37;;;;;;;;;;;;;;;26.84;30.23;101831.66;5015218;28;1129;-50
2021/10/01 04:29:02;;;;;;;;;;;;;;;26.68;30.41;101834.19;5014977;28;1195;-54
2021/10/01 04:31:28;;;;;;;;;;;;;;;26.69;30.44;101834.06;5014947;28;1117;-54
2021/10/01 04:33:53;;;;;;;;;;;;;;;26.59;31.79;101842.19;5015269;28;1227;-51
2021/10/01 04:36:18;;;;;;;;;;;;;;;26.70;32.26;101843.84;5017493;28;1910;-50
2021/10/01 04:38:44;;;;;;;;;;;;;;;26.72;32.14;101847.25;5018773;28;1000;-50
2021/10/01 04:41:09;;;;;;;;;;;;;;;26.48;33.05;101843.28;5016910;28;1165;-51
2021/10/01 04:43:35;;;;;;;;;;;;;;;26.34;33.28;101846.50;5018567;28;1200;-51
2021/10/01 04:46:01;;;;;;;;;;;;;;;26.43;33.08;101839.31;5017430;28;1643;-52
2021/10/01 04:48:26;;;;;;;;;;;;;;;26.49;33.26;101844.97;5018886;28;1188;-51
2021/10/01 04:50:51;;;;;;;;;;;;;;;26.67;31.73;101848.69;5014600;28;1152;-53
2021/10/01 04:53:17;;;;;;;;;;;;;;;26.59;31.28;101850.31;5016571;28;1000;-55
2021/10/01 04:55:42;;;;;;;;;;;;;;;26.24;32.91;101855.44;5017992;28;1894;-56
2021/10/01 04:58:07;;;;;;;;;;;;;;;26.56;32.69;101850.59;5018552;28;1212;-51
2021/10/01 05:00:33;;;;;;;;;;;;;;;26.53;34.87;101864.41;5018504;28;1184;-54
2021/10/01 05:02:58;;;;;;;;;;;;;;;26.67;33.26;101854.97;5018331;28;1114;-51
2021/10/01 05:05:23;;;;;;;;;;;;;;;26.56;34.50;101850.59;5018463;28;1181;-52
2021/10/01 05:07:49;;;;;;;;;;;;;;;26.78;33.15;101856.56;5017941;28;1169;-52
2021/10/01 05:10:14;;;;;;;;;;;;;;;26.96;32.91;101863.84;5018137;28;1101;-36
2021/10/01 05:12:40;;;;;;;;;;;;;;;27.16;32.78;101858.28;5018226;28;1160;-36
2021/10/01 05:15:05;;;;;;;;;;;;;;;27.07;32.66;101860.06;5018486;28;1132;-39
2021/10/01 05:17:33;;;;;;;;;;;;;;;26.97;32.74;101866.38;5018109;28;1906;-38
2021/10/01 05:19:59;;;;;;;;;;;;;;;27.10;32.65;101862.44;5007123;28;1361;-32
2021/10/01 05:22:24;;;;;;;;;;;;;;;27.17;32.85;101862.69;5017890;28;1219;-34
2021/10/01 05:24:49;;;;;;;;;;;;;;;27.28;32.39;101861.59;5004776;28;1117;-38
2021/10/01 05:27:14;;;;;;;;;;;;;;;27.28;32.53;101861.59;5018061;28;1140;-36
2021/10/01 05:29:40;;;;;;;;;;;;;;;27.32;32.77;101874.63;5017969;28;1195;-35
2021/10/01 05:32:05;;;;;;;;;;;;;;;27.38;32.89;101865.03;5017573;28;1129;-33
2021/10/01 05:34:30;;;;;;;;;;;;;;;27.31;33.06;101863.97;5017623;28;1298;-35
2021/10/01 05:36:56;;;;;;;;;;;;;;;27.51;32.61;101859.19;5017457;28;1910;-36
2021/10/01 05:39:21;;;;;;;;;;;;;;;27.25;32.71;101862.75;5017550;28;1091;-36
2021/10/01 05:41:46;;;;;;;;;;;;;;;27.12;33.09;101863.16;5017736;28;1212;-34
2021/10/01 05:44:12;;;;;;;;;;;;;;;27.21;33.09;101864.06;5017967;28;1074;-37
2021/10/01 05:46:42;;;;;;;;;;;;;;;26.88;33.56;101864.59;5016957;28;950;-33
2021/10/01 05:49:10;;;;;;;;;;;;;;;26.77;33.66;101861.13;5017288;28;1105;-32
2021/10/01 05:51:40;;;;;;;;;;;;;;;26.69;33.64;101861.06;5017407;28;1124;-34
2021/10/01 05:56:33;;;;;;;;;;;;;;;26.96;31.19;101859.25;5017209;28;1959;-31
2021/10/01 05:58:58;;;;;;;;;;;;;;;26.87;30.36;101861.06;5016616;28;900;-37
2021/10/01 06:01:23;;;;;;;;;;;;;;;26.92;32.30;101866.00;4999524;28;1188;-31
2021/10/01 06:03:51;;;;;;;;;;;;;;;26.93;33.10;101864.13;5017034;28;1401;-35
2021/10/01 06:06:16;;;;;;;;;;;;;;;26.98;32.88;101870.75;5017147;28;1173;-38
2021/10/01 06:08:41;;;;;;;;;;;;;;;27.13;33.28;101864.84;5016734;28;1037;-38
2021/10/01 06:11:06;;;;;;;;;;;;;;;27.32;32.51;101871.06;5016669;28;1181;-35
2021/10/01 06:13:33;;;;;;;;;;;;;;;26.82;31.03;101867.91;5017131;28;1105;-33
2021/10/01 06:15:58;;;;;;;;;;;;;;;26.73;32.43;101865.13;5015862;28;1894;-38
2021/10/01 06:18:24;;;;;;;;;;;;;;;26.92;32.23;101871.38;5015927;28;1069;-30
2021/10/01 06:20:49;;;;;;;;;;;;;;;26.92;32.92;101859.72;5016857;28;1106;-38
2021/10/01 06:23:16;;;;;;;;;;;;;;;27.00;32.41;101859.81;5016312;28;1173;-36
2021/10/01 06:25:44;;;;;;;;;;;;;;;26.90;33.48;101868.00;5016525;28;1256;-37
2021/10/01 06:28:09;;;;;;;;;;;;;;;26.90;33.68;101873.38;5016499;28;1187;-36
2021/10/01 06:30:35;;;;;;;;;;;;;;;27.05;33.36;101870.16;5016113;28;1093;-35
2021/10/01 06:33:00;;;;;;;;;;;;;;;27.22;32.49;101871.16;5016271;28;1117;-36
2021/10/01 06:35:25;;;;;;;;;;;;;;;27.10;33.10;101870.56;5015764;28;1243;-32
2021/10/01 06:37:51;;;;;;;;;;;;;;;27.21;33.35;101873.00;5016377;28;1906;-37
2021/10/01 06:40:16;;;;;;;;;;;;;;;27.46;31.97;101872.38;5016436;28;1121;-37
2021/10/01 06:42:47;;;;;;;;;;;;;;;27.56;31.83;101870.38;5016123;28;1097;-36
2021/10/01 06:45:16;;;;;;;;;;;;;;;27.55;32.64;101874.09;5016930;28;1077;-38
2021/10/01 06:47:59;;;;;;;;;;;;;;;27.61;32.51;101880.75;5002462;28;1034;-35
2021/10/01 07:23:34;;;;;;;;;;;;;;;27.79;33.12;101872.59;5015709;28;1030;-32
2021/10/01 07:45:57;;;;;;;;;;;;;;;27.50;33.62;101885.41;4996166;28;1109;-39
2021/10/01 08:21:00;;;;;;;;;;;;;;;27.87;31.90;101863.69;4998976;28;1058;-36
2021/10/01 08:23:26;;;;;;;;;;;;;;;27.96;32.11;101860.00;4998065;28;950;-36
2021/10/01 08:25:51;;;;;;;;;;;;;;;28.00;32.03;101860.53;4999115;28;1787;-36
2021/10/01 08:28:16;;;;;;;;;;;;;;;27.95;32.55;101858.31;4999524;28;1116;-35
2021/10/01 08:30:42;;;;;;;;;;;;;;;27.99;32.01;101853.44;4999406;28;1129;-35
2021/10/01 08:33:07;;;;;;;;;;;;;;;27.98;31.16;101863.41;4999421;28;1117;-33
2021/10/01 08:35:32;;;;;;;;;;;;;;;27.92;31.07;101869.47;5007866;28;1487;-32
2021/10/01 08:37:58;;;;;;;;;;;;;;;27.94;30.70;101859.34;5018885;28;1962;-37
2021/10/01 08:40:23;;;;;;;;;;;;;;;28.02;30.68;101857.66;5018967;28;1125;-36
2021/10/01 08:42:49;;;;;;;;;;;;;;;27.99;30.46;101867.78;5018161;28;1082;-38
2021/10/01 08:45:15;;;;;;;;;;;;;;;27.93;30.52;101860.31;5018702;28;1093;-36
2021/10/01 08:47:41;;;;;;;;;;;;;;;28.02;30.85;101850.41;5005191;28;1113;-35
2021/10/01 08:50:07;;;;;;;;;;;;;;;28.00;30.72;101868.63;5018647;28;1160;-37
2021/10/01 08:52:32;;;;;;;;;;;;;;;28.00;30.51;101852.41;5018570;28;1129;-36
2021/10/01 08:54:58;;;;;;;;;;;;;;;27.94;30.29;101858.47;5018717;28;1117;-36
2021/10/01 08:57:23;;;;;;;;;;;;;;;27.95;30.03;101861.03;5017792;28;1898;-36
2021/10/01 08:59:49;;;;;;;;;;;;;;;27.94;30.06;101861.19;5017909;28;1113;-36
2021/10/01 09:02:14;;;;;;;;;;;;;;;27.92;29.96;101857.78;5017999;28;1161;-31
2021/10/01 09:04:39;;;;;;;;;;;;;;;27.93;29.74;101851.34;5018257;28;1097;-35
2021/10/01 09:07:05;;;;;;;;;;;;;;;27.90;29.73;101857.94;5018457;28;1224;-35
2021/10/01 09:09:37;;;;;;;;;;;;;;;27.83;28.66;101875.81;5018060;28;1120;-32
2021/10/01 09:12:02;;;;;;;;;;;;;;;27.48;27.74;101849.56;5018048;28;1156;-36
2021/10/01 09:14:27;;;;;;;;;;;;;;;27.61;28.99;101846.44;5018442;28;1183;-35
2021/10/01 09:16:53;;;;;;;;;;;;;;;27.77;30.26;101857.53;5017167;28;1957;-35
2021/10/01 09:19:18;;;;;;;;;;;;;;;27.83;30.53;101852.34;5018118;28;1128;-36
2021/10/01 09:21:44;;;;;;;;;;;;;;;27.61;30.44;101865.34;5017089;28;861;-36
2021/10/01 09:24:12;;;;;;;;;;;;;;;27.79;30.76;101859.09;5017372;28;1215;-34
2021/10/01 09:26:44;;;;;;;;;;;;;;;27.88;30.93;101859.97;5017976;28;1472;-34
2021/10/01 09:29:13;;;;;;;;;;;;;;;27.93;30.89;101841.41;5018060;28;1093;-34
2021/10/01 09:31:40;;;;;;;;;;;;;;;27.97;30.96;101856.31;5018070;28;1065;-34
2021/10/01 09:34:08;;;;;;;;;;;;;;;28.02;31.02;101852.25;5018044;28;1101;-37
2021/10/01 09:36:33;;;;;;;;;;;;;;;28.03;31.43;101864.78;5017429;28;1914;-33
2021/10/01 09:38:58;;;;;;;;;;;;;;;27.98;31.19;101868.81;5017937;28;1093;-36
2021/10/01 09:41:29;;;;;;;;;;;;;;;27.92;31.41;101858.63;5017370;28;1157;-33
2021/10/01 09:43:58;;;;;;;;;;;;;;;27.99;31.51;101858.84;5017273;28;1163;-33
2021/10/01 09:46:23;;;;;;;;;;;;;;;28.18;31.43;101863.13;5017429;28;1156;-38
2021/10/01 09:48:48;;;;;;;;;;;;;;;28.08;31.55;101871.38;5011131;28;1367;-38
2021/10/01 09:51:15;;;;;;;;;;;;;;;28.02;31.60;101871.19;5017466;28;1113;-38
2021/10/01 09:53:50;;;;;;;;;;;;;;;27.96;31.45;101868.09;5017124;28;992;-36
2021/10/01 09:56:22;;;;;;;;;;;;;;;27.97;31.70;101875.22;5004302;28;1898;-34
2021/10/01 09:59:07;;;;;;;;;;;;;;;28.02;31.71;101863.06;5017660;28;1353;-35
2021/10/01 10:01:32;;;;;;;;;;;;;;;27.81;31.97;101869.75;5017368;28;920;-37
2021/10/01 10:03:58;;;;;;;;;;;;;;;27.94;31.85;101870.16;5017235;28;1125;-32
2021/10/01 10:06:23;;;;;;;;;;;;;;;27.88;31.07;101873.47;5017387;28;1107;-37
2021/10/01 10:08:48;;;;;;;;;;;;;;;27.87;29.61;101875.34;5017599;28;1109;-37
2021/10/01 10:11:18;;;;;;;;;;;;;;;27.86;31.73;101870.09;5017249;28;1109;-34
2021/10/01 10:13:44;;;;;;;;;;;;;;;27.94;32.16;101863.88;5016821;28;1012;-35
2021/10/01 10:16:16;;;;;;;;;;;;;;;27.89;32.59;101863.53;5016852;28;1910;-34
2021/10/01 10:18:42;;;;;;;;;;;;;;;27.91;32.30;101862.34;5017041;28;1129;-36
2021/10/01 10:21:08;;;;;;;;;;;;;;;27.98;32.48;101849.00;5016706;28;1225;-37
2021/10/01 10:23:33;;;;;;;;;;;;;;;27.84;32.50;101859.44;5016891;28;1052;-36
2021/10/01 10:25:58;;;;;;;;;;;;;;;27.82;32.66;101849.78;5016772;28;1113;-32
2021/10/01 10:28:24;;;;;;;;;;;;;;;27.80;32.96;101858.06;5017042;28;1152;-37
2021/10/01 10:30:49;;;;;;;;;;;;;;;27.80;32.93;101844.56;5016988;28;1081;-35
2021/10/01 10:33:33;;;;;;;;;;;;;;;27.87;33.20;101851.03;5016200;28;1224;-31
2021/10/01 10:35:59;;;;;;;;;;;;;;;27.90;33.01;101849.84;5016778;28;1967;-35
2021/10/01 10:38:33;;;;;;;;;;;;;;;27.86;32.91;101853.88;5015036;28;1488;-33
2021/10/01 10:41:18;;;;;;;;;;;;;;;27.82;32.95;101847.09;5016811;28;1090;-38
2021/10/01 10:43:46;;;;;;;;;;;;;;;27.79;32.94;101855.53;5016393;28;1165;-36
2021/10/01 10:46:30;;;;;;;;;;;;;;;27.90;31.93;101849.84;5016430;28;1105;-34
2021/10/01 10:49:14;;;;;;;;;;;;;;;27.92;32.11;101839.72;5016818;28;1145;-35
2021/10/01 10:52:01;;;;;;;;;;;;;;;27.84;32.45;101842.38;5015698;28;1446;-33
2021/10/01 10:54:27;;;;;;;;;;;;;;;27.93;32.47;101827.00;5016132;28;1424;-35
2021/10/01 10:57:21;;;;;;;;;;;;;;;28.04;32.42;101832.16;5015510;28;1961;-39
2021/10/01 10:59:50;;;;;;;;;;;;;;;27.92;32.34;101836.16;4996037;28;1300;-35
2021/10/01 11:02:16;;;;;;;;;;;;;;;27.99;32.69;101837.22;5016235;28;1152;-37
2021/10/01 11:04:42;;;;;;;;;;;;;;;27.96;32.29;101843.78;5015723;28;924;-36
2021/10/01 11:07:07;;;;;;;;;;;;;;;27.94;32.20;101848.50;4998268;28;1149;-34
2021/10/01 11:09:34;;;;;;;;;;;;;;;27.88;31.63;101846.44;5007732;28;1094;-38
2021/10/01 11:11:59;;;;;;;;;;;;;;;27.18;31.90;101835.50;5016279;28;1223;-34
2021/10/01 11:14:26;;;;;;;;;;;;;;;27.28;32.53;101840.81;5016059;28;1125;-35
2021/10/01 11:16:54;;;;;;;;;;;;;;;27.49;31.89;101837.75;5015592;28;1894;-33
2021/10/01 11:19:35;;;;;;;;;;;;;;;27.59;32.35;101837.63;5016439;28;1129;-36
2021/10/01 11:22:00;;;;;;;;;;;;;;;27.50;31.98;101831.34;5015636;28;1136;-38
2021/10/01 11:24:25;;;;;;;;;;;;;;;27.39;31.70;101835.16;5016261;28;1140;-36
2021/10/01 11:26:52;;;;;;;;;;;;;;;27.29;30.91;101837.13;5001435;28;1169;-37
2021/10/01 11:29:24;;;;;;;;;;;;;;;27.12;30.99;101833.44;5015436;28;1077;-35
2021/10/01 11:31:56;;;;;;;;;;;;;;;27.18;32.33;101838.22;5015997;28;1132;-35
2021/10/01 11:34:37;;;;;;;;;;;;;;;27.26;31.67;101834.72;5016312;28;1146;-37
2021/10/01 11:37:02;;;;;;;;;;;;;;;27.40;31.72;101833.31;5003550;28;1914;-32
2021/10/01 11:39:27;;;;;;;;;;;;;;;27.53;32.12;101829.34;5016392;28;1163;-37
2021/10/01 11:41:53;;;;;;;;;;;;;;;27.47;32.31;101831.69;5014899;28;1317;-38
2021/10/01 11:44:19;;;;;;;;;;;;;;;27.38;31.84;101843.41;4999409;28;1117;-38
2021/10/01 11:46:45;;;;;;;;;;;;;;;27.38;32.34;101840.72;5002777;28;1481;-38
2021/10/01 11:49:20;;;;;;;;;;;;;;;27.37;32.11;101839.03;5019601;28;1175;-34
2021/10/01 11:52:05;;;;;;;;;;;;;;;27.42;32.28;101834.00;5011462;28;1102;-38
2021/10/01 11:54:30;;;;;;;;;;;;;;;27.53;32.85;101840.16;5014565;28;1121;-36
2021/10/01 11:56:56;;;;;;;;;;;;;;;27.61;32.63;101838.31;5018971;28;1898;-35
2021/10/01 11:59:25;;;;;;;;;;;;;;;27.73;33.00;101836.22;5020306;28;1188;-35
2021/10/01 12:01:54;;;;;;;;;;;;;;;27.66;32.48;101834.31;5019614;28;1184;-38
2021/10/01 12:04:20;;;;;;;;;;;;;;;27.75;32.75;101836.06;5020023;28;1109;-38
2021/10/01 12:06:45;;;;;;;;;;;;;;;27.79;32.61;101833.91;5033749;28;1212;-36
2021/10/01 12:09:12;;;;;;;;;;;;;;;27.83;32.97;101824.44;5019421;28;1191;-38
2021/10/01 12:11:39;;;;;;;;;;;;;;;27.75;32.93;101820.72;5019498;28;1220;-35
2021/10/01 12:14:11;;;;;;;;;;;;;;;27.72;33.18;101829.16;5019280;28;1112;-36
2021/10/01 12:16:38;;;;;;;;;;;;;;;27.80;33.15;101820.22;5013995;28;1971;-39
2021/10/01 12:19:05;;;;;;;;;;;;;;;27.83;32.87;101819.88;5019190;28;1030;-33
2021/10/01 12:21:31;;;;;;;;;;;;;;;27.80;33.20;101817.50;5018541;28;976;-37
2021/10/01 12:23:56;;;;;;;;;;;;;;;27.75;33.13;101815.31;5019482;28;1129;-34
2021/10/01 12:26:23;;;;;;;;;;;;;;;27.67;33.52;101815.22;5018608;28;899;-35
2021/10/01 12:28:59;;;;;;;;;;;;;;;27.77;33.42;101811.56;5018999;28;1069;-37
2021/10/01 12:31:29;;;;;;;;;;;;;;;27.63;33.52;101811.13;5019002;28;1069;-33
2021/10/01 12:33:54;;;;;;;;;;;;;;;27.50;33.50;101809.72;5019042;28;1130;-36
2021/10/01 12:36:19;;;;;;;;;;;;;;;27.53;33.81;101805.84;5017028;28;1985;-38
2021/10/01 12:38:44;;;;;;;;;;;;;;;27.73;33.36;101801.09;5017710;28;1114;-37
2021/10/01 12:41:10;;;;;;;;;;;;;;;27.80;33.59;101805.84;5019035;28;1124;-33
2021/10/01 12:43:42;;;;;;;;;;;;;;;27.78;31.86;101799.78;5019030;28;1168;-37
2021/10/01 12:46:09;;;;;;;;;;;;;;;27.66;28.90;101812.69;5018610;28;943;-37
2021/10/01 12:48:35;;;;;;;;;;;;;;;27.49;28.18;101805.31;5019107;28;1145;-38
2021/10/01 12:51:00;;;;;;;;;;;;;;;27.38;30.31;101808.28;5018144;28;1085;-37
2021/10/01 12:53:25;;;;;;;;;;;;;;;27.57;32.30;101809.09;5018410;28;971;-34
2021/10/01 12:55:50;;;;;;;;;;;;;;;27.65;32.67;101814.53;5016955;28;1963;-38
2021/10/01 12:58:20;;;;;;;;;;;;;;;27.63;32.50;101812.00;5018310;28;1184;-38
2021/10/01 13:00:45;;;;;;;;;;;;;;;27.71;32.68;101808.50;5018537;28;1176;-37
2021/10/01 13:03:11;;;;;;;;;;;;;;;27.81;32.38;101812.97;5018718;28;1089;-37
2021/10/01 13:05:39;;;;;;;;;;;;;;;27.62;32.57;101814.84;5017750;28;1494;-39
2021/10/01 13:08:05;;;;;;;;;;;;;;;27.65;32.71;101817.25;5014373;28;1027;-37
2021/10/01 13:10:48;;;;;;;;;;;;;;;27.59;33.03;101812.47;5017971;28;1157;-38
2021/10/01 13:13:20;;;;;;;;;;;;;;;27.46;32.88;101810.22;5004752;28;1022;-37
2021/10/01 13:15:48;;;;;;;;;;;;;;;27.69;33.07;101815.97;5017615;28;1902;-39
2021/10/01 13:18:20;;;;;;;;;;;;;;;27.77;32.75;101817.84;5018132;28;1161;-39
2021/10/01 13:20:50;;;;;;;;;;;;;;;27.77;32.69;101814.28;5017985;28;1109;-35
2021/10/01 13:23:18;;;;;;;;;;;;;;;27.82;32.62;101807.38;5017978;28;1177;-38
2021/10/01 13:25:48;;;;;;;;;;;;;;;27.65;33.05;101816.38;5018762;28;1208;-34
2021/10/01 13:28:13;;;;;;;;;;;;;;;27.62;33.40;101815.72;5018186;28;1211;-39
2021/10/01 13:30:39;;;;;;;;;;;;;;;27.71;33.35;101810.38;5007177;28;1284;-38
2021/10/01 13:33:04;;;;;;;;;;;;;;;27.71;33.42;101811.22;5014012;28;1136;-39
2021/10/01 13:35:29;;;;;;;;;;;;;;;27.71;33.25;101805.81;5017597;28;1290;-39
2021/10/01 13:37:55;;;;;;;;;;;;;;;27.71;33.47;101804.97;5017178;28;1918;-39
2021/10/01 13:40:21;;;;;;;;;;;;;;;27.79;33.27;101804.16;5017742;28;1061;-39
2021/10/01 13:42:47;;;;;;;;;;;;;;;27.89;33.42;101804.88;5017623;28;1172;-35
2021/10/01 13:45:12;;;;;;;;;;;;;;;27.75;33.70;101801.78;5018020;28;1161;-36
2021/10/01 13:47:38;;;;;;;;;;;;;;;27.80;33.58;101804.00;5017508;28;1252;-37
2021/10/01 13:50:04;;;;;;;;;;;;;;;27.79;33.57;101793.34;5017475;28;858;-36
2021/10/01 13:52:29;;;;;;;;;;;;;;;27.89;33.76;101809.44;5017901;28;1156;-36
2021/10/01 13:54:54;;;;;;;;;;;;;;;27.72;34.13;101791.28;5017687;28;1097;-36
2021/10/01 13:57:19;;;;;;;;;;;;;;;27.73;34.18;101801.09;5017466;28;1979;-39
2021/10/01 13:59:45;;;;;;;;;;;;;;;27.77;33.88;101793.50;5018040;28;1098;-38
2021/10/01 14:02:10;;;;;;;;;;;;;;;27.71;34.03;101799.56;5017589;28;1207;-38
2021/10/01 14:04:35;;;;;;;;;;;;;;;27.80;33.86;101793.19;5017484;28;1121;-38
2021/10/01 14:07:01;;;;;;;;;;;;;;;27.81;34.14;101794.88;5016903;28;1165;-39
2021/10/01 14:09:26;;;;;;;;;;;;;;;27.89;33.85;101785.09;5015944;28;1219;-36
2021/10/01 14:11:51;;;;;;;;;;;;;;;27.96;33.93;101791.56;5017269;28;1117;-38
2021/10/01 14:14:17;;;;;;;;;;;;;;;27.81;33.96;101789.47;5016687;28;1164;-36
2021/10/01 14:16:42;;;;;;;;;;;;;;;27.89;34.01;101785.97;5017451;28;1977;-39